Aviation Digital Data Service (ADDS)

Output produced by METARs form (0537 UTC 24 January 2019)
found at http://www.aviationweather.gov/metar/data/
 
METAR text: KSEA 240515Z 02003KT 10SM OVC011 08/06 A3043 RMK AO2 DZE15 P0000 T00780056
Conditions at: KSEA (SEATTLE/METRO , WA, US) observed 0515 UTC 24 January 2019
Temperature: 7.8°C (46°F)
Dewpoint: 5.6°C (42°F) [RH = 86%]
Pressure (altimeter): 30.43 inches Hg (1030.6 mb)
Winds: from the NNE (20 degrees) at 3 MPH (3 knots; 1.5 m/s)
Visibility: 10 or more miles (16+ km)
Ceiling: 1100 feet AGL
Clouds: overcast cloud deck at 1100 feet AGL
Weather: no significant weather observed at this time

METAR text: KSEA 240453Z 00000KT 9SM -DZ FEW012 BKN024 OVC038 08/05 A3042 RMK AO2 DZB27 SLP310 P0000 T00780050
Conditions at: KSEA (SEATTLE/METRO , WA, US) observed 0453 UTC 24 January 2019
Temperature: 7.8°C (46°F)
Dewpoint: 5.0°C (41°F) [RH = 82%]
Pressure (altimeter): 30.42 inches Hg (1030.2 mb)
[Sea-level pressure: 1031.0 mb]
Winds: calm
Visibility: 9 miles (14 km)
Ceiling: 2400 feet AGL
Clouds: few clouds at 1200 feet AGL
broken clouds at 2400 feet AGL
overcast cloud deck at 3800 feet AGL
Weather: -DZ  (light drizzle)

METAR text: KSEA 240427Z 00000KT 7SM -DZ BKN012 OVC044 08/06 A3042 RMK AO2 DZB27 P0000 T00830056
Conditions at: KSEA (SEATTLE/METRO , WA, US) observed 0427 UTC 24 January 2019
Temperature: 8.3°C (47°F)
Dewpoint: 5.6°C (42°F) [RH = 83%]
Pressure (altimeter): 30.42 inches Hg (1030.2 mb)
Winds: calm
Visibility: 7 miles (11 km)
Ceiling: 1200 feet AGL
Clouds: broken clouds at 1200 feet AGL
overcast cloud deck at 4400 feet AGL
Weather: -DZ  (light drizzle)

METAR text: KSEA 240353Z 29003KT 10SM OVC044 08/06 A3043 RMK AO2 SLP311 T00780056
Conditions at: KSEA (SEATTLE/METRO , WA, US) observed 0353 UTC 24 January 2019
Temperature: 7.8°C (46°F)
Dewpoint: 5.6°C (42°F) [RH = 86%]
Pressure (altimeter): 30.43 inches Hg (1030.6 mb)
[Sea-level pressure: 1031.1 mb]
Winds: from the WNW (290 degrees) at 3 MPH (3 knots; 1.5 m/s)
Visibility: 10 or more miles (16+ km)
Ceiling: 4400 feet AGL
Clouds: overcast cloud deck at 4400 feet AGL
Weather: no significant weather observed at this time

METAR text: KSEA 240253Z 00000KT 10SM SCT027 OVC048 08/06 A3041 RMK AO2 SLP304 T00830056 51012
Conditions at: KSEA (SEATTLE/METRO , WA, US) observed 0253 UTC 24 January 2019
Temperature: 8.3°C (47°F)
Dewpoint: 5.6°C (42°F) [RH = 83%]
Pressure (altimeter): 30.41 inches Hg (1029.9 mb)
[Sea-level pressure: 1030.4 mb]
Winds: calm
Visibility: 10 or more miles (16+ km)
Ceiling: 4800 feet AGL
Clouds: scattered clouds at 2700 feet AGL
overcast cloud deck at 4800 feet AGL
Weather: no significant weather observed at this time

METAR text: KSEA 240153Z 30003KT 10SM BKN027 OVC033 08/06 A3039 RMK AO2 SLP300 T00830056
Conditions at: KSEA (SEATTLE/METRO , WA, US) observed 0153 UTC 24 January 2019
Temperature: 8.3°C (47°F)
Dewpoint: 5.6°C (42°F) [RH = 83%]
Pressure (altimeter): 30.39 inches Hg (1029.2 mb)
[Sea-level pressure: 1030.0 mb]
Winds: from the WNW (300 degrees) at 3 MPH (3 knots; 1.5 m/s)
Visibility: 10 or more miles (16+ km)
Ceiling: 2700 feet AGL
Clouds: broken clouds at 2700 feet AGL
overcast cloud deck at 3300 feet AGL
Weather: no significant weather observed at this time

METAR text: KSEA 240053Z 05003KT 10SM BKN025 BKN036 09/06 A3038 RMK AO2 SLP296 T00890056
Conditions at: KSEA (SEATTLE/METRO , WA, US) observed 0053 UTC 24 January 2019
Temperature: 8.9°C (48°F)
Dewpoint: 5.6°C (42°F) [RH = 80%]
Pressure (altimeter): 30.38 inches Hg (1028.9 mb)
[Sea-level pressure: 1029.6 mb]
Winds: from the NE (50 degrees) at 3 MPH (3 knots; 1.5 m/s)
Visibility: 10 or more miles (16+ km)
Ceiling: 2500 feet AGL
Clouds: broken clouds at 2500 feet AGL
broken clouds at 3600 feet AGL
Weather: no significant weather observed at this time

METAR text: KSEA 232353Z 34003KT 10SM FEW012 BKN025 09/06 A3037 RMK AO2 SLP291 T00940056 10106 20078 53010
Conditions at: KSEA (SEATTLE/METRO , WA, US) observed 2353 UTC 23 January 2019
Temperature: 9.4°C (49°F)
Dewpoint: 5.6°C (42°F) [RH = 77%]
Pressure (altimeter): 30.37 inches Hg (1028.5 mb)
[Sea-level pressure: 1029.1 mb]
Winds: from the NNW (340 degrees) at 3 MPH (3 knots; 1.5 m/s)
Visibility: 10 or more miles (16+ km)
Ceiling: 2500 feet AGL
Clouds: few clouds at 1200 feet AGL
broken clouds at 2500 feet AGL
Weather: no significant weather observed at this time

METAR text: KSEA 232331Z 02004KT 10SM SCT012 BKN025 10/06 A3036 RMK AO2 T01000056
Conditions at: KSEA (SEATTLE/METRO , WA, US) observed 2331 UTC 23 January 2019
Temperature: 10.0°C (50°F)
Dewpoint: 5.6°C (42°F) [RH = 74%]
Pressure (altimeter): 30.36 inches Hg (1028.2 mb)
Winds: from the NNE (20 degrees) at 5 MPH (4 knots; 2.1 m/s)
Visibility: 10 or more miles (16+ km)
Ceiling: 2500 feet AGL
Clouds: scattered clouds at 1200 feet AGL
broken clouds at 2500 feet AGL
Weather: no significant weather observed at this time

METAR text: KSEA 232304Z 04005KT 10SM BKN012 BKN034 09/06 A3036 RMK AO2 T00940056
Conditions at: KSEA (SEATTLE/METRO , WA, US) observed 2304 UTC 23 January 2019
Temperature: 9.4°C (49°F)
Dewpoint: 5.6°C (42°F) [RH = 77%]
Pressure (altimeter): 30.36 inches Hg (1028.2 mb)
Winds: from the NE (40 degrees) at 6 MPH (5 knots; 2.6 m/s)
Visibility: 10 or more miles (16+ km)
Ceiling: 1200 feet AGL
Clouds: broken clouds at 1200 feet AGL
broken clouds at 3400 feet AGL
Weather: no significant weather observed at this time

METAR text: KSEA 232253Z 05004KT 10SM SCT012 BKN034 09/06 A3035 RMK AO2 SLP287 T00940056
Conditions at: KSEA (SEATTLE/METRO , WA, US) observed 2253 UTC 23 January 2019
Temperature: 9.4°C (49°F)
Dewpoint: 5.6°C (42°F) [RH = 77%]
Pressure (altimeter): 30.35 inches Hg (1027.9 mb)
[Sea-level pressure: 1028.7 mb]
Winds: from the NE (50 degrees) at 5 MPH (4 knots; 2.1 m/s)
Visibility: 10 or more miles (16+ km)
Ceiling: 3400 feet AGL
Clouds: scattered clouds at 1200 feet AGL
broken clouds at 3400 feet AGL
Weather: no significant weather observed at this time

METAR text: KSEA 232222Z 02006KT 10SM FEW009 BKN036 10/06 A3035 RMK AO2 T01000056
Conditions at: KSEA (SEATTLE/METRO , WA, US) observed 2222 UTC 23 January 2019
Temperature: 10.0°C (50°F)
Dewpoint: 5.6°C (42°F) [RH = 74%]
Pressure (altimeter): 30.35 inches Hg (1027.9 mb)
Winds: from the NNE (20 degrees) at 7 MPH (6 knots; 3.1 m/s)
Visibility: 10 or more miles (16+ km)
Ceiling: 3600 feet AGL
Clouds: few clouds at 900 feet AGL
broken clouds at 3600 feet AGL
Weather: no significant weather observed at this time

METAR text: KSEA 232153Z 02006KT 10SM FEW007 SCT013 BKN028 09/06 A3035 RMK AO2 SLP283 T00940056
Conditions at: KSEA (SEATTLE/METRO , WA, US) observed 2153 UTC 23 January 2019
Temperature: 9.4°C (49°F)
Dewpoint: 5.6°C (42°F) [RH = 77%]
Pressure (altimeter): 30.35 inches Hg (1027.9 mb)
[Sea-level pressure: 1028.3 mb]
Winds: from the NNE (20 degrees) at 7 MPH (6 knots; 3.1 m/s)
Visibility: 10 or more miles (16+ km)
Ceiling: 2800 feet AGL
Clouds: few clouds at 700 feet AGL
scattered clouds at 1300 feet AGL
broken clouds at 2800 feet AGL
Weather: no significant weather observed at this time

METAR text: KSEA 232128Z 01006KT 10SM FEW007 SCT011 OVC025 09/06 A3035 RMK AO2 T00940061
Conditions at: KSEA (SEATTLE/METRO , WA, US) observed 2128 UTC 23 January 2019
Temperature: 9.4°C (49°F)
Dewpoint: 6.1°C (43°F) [RH = 80%]
Pressure (altimeter): 30.35 inches Hg (1027.9 mb)
Winds: from the N (10 degrees) at 7 MPH (6 knots; 3.1 m/s)
Visibility: 10 or more miles (16+ km)
Ceiling: 2500 feet AGL
Clouds: few clouds at 700 feet AGL
scattered clouds at 1100 feet AGL
overcast cloud deck at 2500 feet AGL
Weather: no significant weather observed at this time

METAR text: KSEA 232053Z 02008KT 10SM SCT007 BKN013 OVC025 09/06 A3034 RMK AO2 SLP281 T00890056 51029
Conditions at: KSEA (SEATTLE/METRO , WA, US) observed 2053 UTC 23 January 2019
Temperature: 8.9°C (48°F)
Dewpoint: 5.6°C (42°F) [RH = 80%]
Pressure (altimeter): 30.34 inches Hg (1027.5 mb)
[Sea-level pressure: 1028.1 mb]
Winds: from the NNE (20 degrees) at 9 MPH (8 knots; 4.1 m/s)
Visibility: 10 or more miles (16+ km)
Ceiling: 1300 feet AGL
Clouds: scattered clouds at 700 feet AGL
broken clouds at 1300 feet AGL
overcast cloud deck at 2500 feet AGL
Weather: no significant weather observed at this time

METAR text: KSEA 232032Z 01007KT 10SM SCT006 BKN011 OVC025 09/06 A3033 RMK AO2 T00890061
Conditions at: KSEA (SEATTLE/METRO , WA, US) observed 2032 UTC 23 January 2019
Temperature: 8.9°C (48°F)
Dewpoint: 6.1°C (43°F) [RH = 83%]
Pressure (altimeter): 30.33 inches Hg (1027.2 mb)
Winds: from the N (10 degrees) at 8 MPH (7 knots; 3.6 m/s)
Visibility: 10 or more miles (16+ km)
Ceiling: 1100 feet AGL
Clouds: scattered clouds at 600 feet AGL
broken clouds at 1100 feet AGL
overcast cloud deck at 2500 feet AGL
Weather: no significant weather observed at this time

METAR text: KSEA 231953Z 02007KT 9SM FEW005 BKN009 OVC028 08/06 A3032 RMK AO2 SLP276 T00830061
Conditions at: KSEA (SEATTLE/METRO , WA, US) observed 1953 UTC 23 January 2019
Temperature: 8.3°C (47°F)
Dewpoint: 6.1°C (43°F) [RH = 86%]
Pressure (altimeter): 30.32 inches Hg (1026.8 mb)
[Sea-level pressure: 1027.6 mb]
Winds: from the NNE (20 degrees) at 8 MPH (7 knots; 3.6 m/s)
Visibility: 9 miles (14 km)
Ceiling: 900 feet AGL
Clouds: few clouds at 500 feet AGL
broken clouds at 900 feet AGL
overcast cloud deck at 2800 feet AGL
Weather: no significant weather observed at this time

METAR text: KSEA 231937Z 02007KT 10SM SCT007 BKN011 OVC028 09/07 A3031 RMK AO2 T00890067
Conditions at: KSEA (SEATTLE/METRO , WA, US) observed 1937 UTC 23 January 2019
Temperature: 8.9°C (48°F)
Dewpoint: 6.7°C (44°F) [RH = 86%]
Pressure (altimeter): 30.31 inches Hg (1026.5 mb)
Winds: from the NNE (20 degrees) at 8 MPH (7 knots; 3.6 m/s)
Visibility: 10 or more miles (16+ km)
Ceiling: 1100 feet AGL
Clouds: scattered clouds at 700 feet AGL
broken clouds at 1100 feet AGL
overcast cloud deck at 2800 feet AGL
Weather: no significant weather observed at this time

METAR text: KSEA 231853Z 36009KT 5SM BR BKN005 OVC012 08/06 A3030 RMK AO2 SLP269 T00830061
Conditions at: KSEA (SEATTLE/METRO , WA, US) observed 1853 UTC 23 January 2019
Temperature: 8.3°C (47°F)
Dewpoint: 6.1°C (43°F) [RH = 86%]
Pressure (altimeter): 30.30 inches Hg (1026.2 mb)
[Sea-level pressure: 1026.9 mb]
Winds: from the N (360 degrees) at 10 MPH (9 knots; 4.6 m/s)
Visibility: 5 miles ( 8 km)
Ceiling: 500 feet AGL
Clouds: broken clouds at 500 feet AGL
overcast cloud deck at 1200 feet AGL
Weather: BR  (mist)

METAR text: KSEA 231753Z 34008KT 4SM BR BKN005 OVC021 08/06 A3025 RMK AO2 SLP251 60005 T00780061 10100 20078 53054
Conditions at: KSEA (SEATTLE/METRO , WA, US) observed 1753 UTC 23 January 2019
Temperature: 7.8°C (46°F)
Dewpoint: 6.1°C (43°F) [RH = 89%]
Pressure (altimeter): 30.25 inches Hg (1024.5 mb)
[Sea-level pressure: 1025.1 mb]
Winds: from the NNW (340 degrees) at 9 MPH (8 knots; 4.1 m/s)
Visibility: 4 miles ( 6 km)
Ceiling: 500 feet AGL
Clouds: broken clouds at 500 feet AGL
overcast cloud deck at 2100 feet AGL
Weather: BR  (mist)

METAR text: KSEA 231749Z 34008KT 4SM BR SCT005 OVC021 08/06 A3025 RMK AO2
Conditions at: KSEA (SEATTLE/METRO , WA, US) observed 1749 UTC 23 January 2019
Temperature: 8.0°C (46°F)
Dewpoint: 6.0°C (43°F) [RH = 87%]
Pressure (altimeter): 30.25 inches Hg (1024.5 mb)
Winds: from the NNW (340 degrees) at 9 MPH (8 knots; 4.1 m/s)
Visibility: 4 miles ( 6 km)
Ceiling: 2100 feet AGL
Clouds: scattered clouds at 500 feet AGL
overcast cloud deck at 2100 feet AGL
Weather: BR  (mist)

METAR text: KSEA 231729Z 35009KT 2SM BR SCT005 OVC019 08/06 A3023 RMK AO2 SFC VIS 5 T00780061
Conditions at: KSEA (SEATTLE/METRO , WA, US) observed 1729 UTC 23 January 2019
Temperature: 7.8°C (46°F)
Dewpoint: 6.1°C (43°F) [RH = 89%]
Pressure (altimeter): 30.23 inches Hg (1023.8 mb)
Winds: from the N (350 degrees) at 10 MPH (9 knots; 4.6 m/s)
Visibility: 2.00 miles (3.22 km)
Ceiling: 1900 feet AGL
Clouds: scattered clouds at 500 feet AGL
overcast cloud deck at 1900 feet AGL
Weather: BR  (mist)

METAR text: KSEA 231653Z 33007KT 2SM BR BKN005 OVC013 08/07 A3019 RMK AO2 SFC VIS 3 RAE21 SLP232 P0003 T00830072
Conditions at: KSEA (SEATTLE/METRO , WA, US) observed 1653 UTC 23 January 2019
Temperature: 8.3°C (47°F)
Dewpoint: 7.2°C (45°F) [RH = 93%]
Pressure (altimeter): 30.19 inches Hg (1022.4 mb)
[Sea-level pressure: 1023.2 mb]
Winds: from the NNW (330 degrees) at 8 MPH (7 knots; 3.6 m/s)
Visibility: 2.00 miles (3.22 km)
Ceiling: 500 feet AGL
Clouds: broken clouds at 500 feet AGL
overcast cloud deck at 1300 feet AGL
Weather: BR  (mist)

METAR text: KSEA 231553Z 27005KT 2SM -RA BR BKN007 OVC012 09/08 A3014 RMK AO2 RAB40 SLP214 P0001 T00940078
Conditions at: KSEA (SEATTLE/METRO , WA, US) observed 1553 UTC 23 January 2019
Temperature: 9.4°C (49°F)
Dewpoint: 7.8°C (46°F) [RH = 90%]
Pressure (altimeter): 30.14 inches Hg (1020.7 mb)
[Sea-level pressure: 1021.4 mb]
Winds: from the W (270 degrees) at 6 MPH (5 knots; 2.6 m/s)
Visibility: 2.00 miles (3.22 km)
Ceiling: 700 feet AGL
Clouds: broken clouds at 700 feet AGL
overcast cloud deck at 1200 feet AGL
Weather: -RA BR  (light rain, mist)

METAR text: KSEA 231509Z 24005KT 10SM OVC009 09/08 A3010 RMK AO2 T00940078
Conditions at: KSEA (SEATTLE/METRO , WA, US) observed 1509 UTC 23 January 2019
Temperature: 9.4°C (49°F)
Dewpoint: 7.8°C (46°F) [RH = 90%]
Pressure (altimeter): 30.10 inches Hg (1019.4 mb)
Winds: from the WSW (240 degrees) at 6 MPH (5 knots; 2.6 m/s)
Visibility: 10 or more miles (16+ km)
Ceiling: 900 feet AGL
Clouds: overcast cloud deck at 900 feet AGL
Weather: no significant weather observed at this time

METAR text: KSEA 231453Z 24008KT 10SM OVC010 10/07 A3009 RMK AO2 SLP197 60001 T01000072 53037
Conditions at: KSEA (SEATTLE/METRO , WA, US) observed 1453 UTC 23 January 2019
Temperature: 10.0°C (50°F)
Dewpoint: 7.2°C (45°F) [RH = 83%]
Pressure (altimeter): 30.09 inches Hg (1019.0 mb)
[Sea-level pressure: 1019.7 mb]
Winds: from the WSW (240 degrees) at 9 MPH (8 knots; 4.1 m/s)
Visibility: 10 or more miles (16+ km)
Ceiling: 1000 feet AGL
Clouds: overcast cloud deck at 1000 feet AGL
Weather: no significant weather observed at this time

METAR text: KSEA 231353Z 21011KT 10SM BKN012 OVC065 10/08 A3003 RMK AO2 SLP176 T01000078
Conditions at: KSEA (SEATTLE/METRO , WA, US) observed 1353 UTC 23 January 2019
Temperature: 10.0°C (50°F)
Dewpoint: 7.8°C (46°F) [RH = 86%]
Pressure (altimeter): 30.03 inches Hg (1017.0 mb)
[Sea-level pressure: 1017.6 mb]
Winds: from the SSW (210 degrees) at 13 MPH (11 knots; 5.7 m/s)
Visibility: 10 or more miles (16+ km)
Ceiling: 1200 feet AGL
Clouds: broken clouds at 1200 feet AGL
overcast cloud deck at 6500 feet AGL
Weather: no significant weather observed at this time

METAR text: KSEA 231253Z 22015G23KT 10SM BKN014 BKN021 OVC070 10/08 A3000 RMK AO2 RAE03B18E32 SLP165 P0001 T01000083
Conditions at: KSEA (SEATTLE/METRO , WA, US) observed 1253 UTC 23 January 2019
Temperature: 10.0°C (50°F)
Dewpoint: 8.3°C (47°F) [RH = 89%]
Pressure (altimeter): 30.00 inches Hg (1016.0 mb)
[Sea-level pressure: 1016.5 mb]
Winds: from the SW (220 degrees) at 17 MPH (15 knots; 7.7 m/s)
gusting to 26 MPH (23 knots; 11.8 m/s)
Visibility: 10 or more miles (16+ km)
Ceiling: 1400 feet AGL
Clouds: broken clouds at 1400 feet AGL
broken clouds at 2100 feet AGL
overcast cloud deck at 7000 feet AGL
Weather: no significant weather observed at this time

METAR text: KSEA 231235Z 21015G24KT 10SM FEW007 BKN012 OVC019 10/08 A2998 RMK AO2 RAE03B18E32 P0001 T01000083
Conditions at: KSEA (SEATTLE/METRO , WA, US) observed 1235 UTC 23 January 2019
Temperature: 10.0°C (50°F)
Dewpoint: 8.3°C (47°F) [RH = 89%]
Pressure (altimeter): 29.98 inches Hg (1015.3 mb)
Winds: from the SSW (210 degrees) at 17 MPH (15 knots; 7.7 m/s)
gusting to 28 MPH (24 knots; 12.3 m/s)
Visibility: 10 or more miles (16+ km)
Ceiling: 1200 feet AGL
Clouds: few clouds at 700 feet AGL
broken clouds at 1200 feet AGL
overcast cloud deck at 1900 feet AGL
Weather: no significant weather observed at this time

METAR text: KSEA 231203Z 22016G23KT 8SM FEW008 BKN015 OVC020 10/08 A2998 RMK AO2 RAE03 P0000 T01000083
Conditions at: KSEA (SEATTLE/METRO , WA, US) observed 1203 UTC 23 January 2019
Temperature: 10.0°C (50°F)
Dewpoint: 8.3°C (47°F) [RH = 89%]
Pressure (altimeter): 29.98 inches Hg (1015.3 mb)
Winds: from the SW (220 degrees) at 18 MPH (16 knots; 8.2 m/s)
gusting to 26 MPH (23 knots; 11.8 m/s)
Visibility: 8 miles (13 km)
Ceiling: 1500 feet AGL
Clouds: few clouds at 800 feet AGL
broken clouds at 1500 feet AGL
overcast cloud deck at 2000 feet AGL
Weather: no significant weather observed at this time

METAR text: KSEA 231153Z 21015G21KT 5SM -RA BR SCT010 BKN014 OVC020 10/08 A2998 RMK AO2 PK WND 23030/1120 RAB02 SLP159 P0002 60041 70116 T01000083 10106 20083 53010
Conditions at: KSEA (SEATTLE/METRO , WA, US) observed 1153 UTC 23 January 2019
Temperature: 10.0°C (50°F)
Dewpoint: 8.3°C (47°F) [RH = 89%]
Pressure (altimeter): 29.98 inches Hg (1015.3 mb)
[Sea-level pressure: 1015.9 mb]
Winds: from the SSW (210 degrees) at 17 MPH (15 knots; 7.7 m/s)
gusting to 24 MPH (21 knots; 10.8 m/s)
Visibility: 5 miles ( 8 km)
Ceiling: 1400 feet AGL
Clouds: scattered clouds at 1000 feet AGL
broken clouds at 1400 feet AGL
overcast cloud deck at 2000 feet AGL
Weather: -RA BR  (light rain, mist)

METAR text: KSEA 231053Z 21014KT 7SM SCT004 BKN010 OVC015 10/08 A2996 RMK AO2 RAE50 SLP153 P0013 T01000083
Conditions at: KSEA (SEATTLE/METRO , WA, US) observed 1053 UTC 23 January 2019
Temperature: 10.0°C (50°F)
Dewpoint: 8.3°C (47°F) [RH = 89%]
Pressure (altimeter): 29.96 inches Hg (1014.6 mb)
[Sea-level pressure: 1015.3 mb]
Winds: from the SSW (210 degrees) at 16 MPH (14 knots; 7.2 m/s)
Visibility: 7 miles (11 km)
Ceiling: 1000 feet AGL
Clouds: scattered clouds at 400 feet AGL
broken clouds at 1000 feet AGL
overcast cloud deck at 1500 feet AGL
Weather: no significant weather observed at this time

METAR text: KSEA 231050Z 21014G21KT 7SM SCT004 BKN010 OVC015 10/08 A2996 RMK AO2 RAE50 P0013
Conditions at: KSEA (SEATTLE/METRO , WA, US) observed 1050 UTC 23 January 2019
Temperature: 10.0°C (50°F)
Dewpoint: 8.0°C (46°F) [RH = 87%]
Pressure (altimeter): 29.96 inches Hg (1014.6 mb)
Winds: from the SSW (210 degrees) at 16 MPH (14 knots; 7.2 m/s)
gusting to 24 MPH (21 knots; 10.8 m/s)
Visibility: 7 miles (11 km)
Ceiling: 1000 feet AGL
Clouds: scattered clouds at 400 feet AGL
broken clouds at 1000 feet AGL
overcast cloud deck at 1500 feet AGL
Weather: no significant weather observed at this time

METAR text: KSEA 231044Z 21014KT 2SM -RA BR BKN004 OVC010 10/08 A2997 RMK AO2 P0013 T01000083
Conditions at: KSEA (SEATTLE/METRO , WA, US) observed 1044 UTC 23 January 2019
Temperature: 10.0°C (50°F)
Dewpoint: 8.3°C (47°F) [RH = 89%]
Pressure (altimeter): 29.97 inches Hg (1015.0 mb)
Winds: from the SSW (210 degrees) at 16 MPH (14 knots; 7.2 m/s)
Visibility: 2.00 miles (3.22 km)
Ceiling: 400 feet AGL
Clouds: broken clouds at 400 feet AGL
overcast cloud deck at 1000 feet AGL
Weather: -RA BR  (light rain, mist)

METAR text: KSEA 230953Z 20016G23KT 2SM RA BR OVC008 10/09 A2994 RMK AO2 PK WND 18030/0935 SLP147 P0010 T01000089
Conditions at: KSEA (SEATTLE/METRO , WA, US) observed 0953 UTC 23 January 2019
Temperature: 10.0°C (50°F)
Dewpoint: 8.9°C (48°F) [RH = 93%]
Pressure (altimeter): 29.94 inches Hg (1014.0 mb)
[Sea-level pressure: 1014.7 mb]
Winds: from the SSW (200 degrees) at 18 MPH (16 knots; 8.2 m/s)
gusting to 26 MPH (23 knots; 11.8 m/s)
Visibility: 2.00 miles (3.22 km)
Ceiling: 800 feet AGL
Clouds: overcast cloud deck at 800 feet AGL
Weather: RA BR  (moderate rain, mist)

METAR text: KSEA 230927Z 18018G26KT 3SM -RA BR SCT006 OVC010 10/08 A2994 RMK AO2 PK WND 18028/0917 P0005 T01000083
Conditions at: KSEA (SEATTLE/METRO , WA, US) observed 0927 UTC 23 January 2019
Temperature: 10.0°C (50°F)
Dewpoint: 8.3°C (47°F) [RH = 89%]
Pressure (altimeter): 29.94 inches Hg (1014.0 mb)
Winds: from the S (180 degrees) at 21 MPH (18 knots; 9.3 m/s)
gusting to 30 MPH (26 knots; 13.4 m/s)
Visibility: 3 miles ( 5 km)
Ceiling: 1000 feet AGL
Clouds: scattered clouds at 600 feet AGL
overcast cloud deck at 1000 feet AGL
Weather: -RA BR  (light rain, mist)

METAR text: KSEA 230853Z 18018G29KT 2SM -RA BR BKN008 OVC013 10/08 A2995 RMK AO2 PK WND 18029/0847 SLP148 P0006 60016 T01000083 58016
Conditions at: KSEA (SEATTLE/METRO , WA, US) observed 0853 UTC 23 January 2019
Temperature: 10.0°C (50°F)
Dewpoint: 8.3°C (47°F) [RH = 89%]
Pressure (altimeter): 29.95 inches Hg (1014.3 mb)
[Sea-level pressure: 1014.8 mb]
Winds: from the S (180 degrees) at 21 MPH (18 knots; 9.3 m/s)
gusting to 33 MPH (29 knots; 14.9 m/s)
Visibility: 2.00 miles (3.22 km)
Ceiling: 800 feet AGL
Clouds: broken clouds at 800 feet AGL
overcast cloud deck at 1300 feet AGL
Weather: -RA BR  (light rain, mist)

METAR text: KSEA 230753Z 19017G31KT 2SM -RA BR BKN007 OVC014 09/08 A2998 RMK AO2 PK WND 19031/0744 SLP160 P0005 T00940078 400940044
Conditions at: KSEA (SEATTLE/METRO , WA, US) observed 0753 UTC 23 January 2019
Temperature: 9.4°C (49°F)
Dewpoint: 7.8°C (46°F) [RH = 90%]
Pressure (altimeter): 29.98 inches Hg (1015.3 mb)
[Sea-level pressure: 1016.0 mb]
Winds: from the S (190 degrees) at 20 MPH (17 knots; 8.7 m/s)
gusting to 36 MPH (31 knots; 15.9 m/s)
Visibility: 2.00 miles (3.22 km)
Ceiling: 700 feet AGL
Clouds: broken clouds at 700 feet AGL
overcast cloud deck at 1400 feet AGL
Weather: -RA BR  (light rain, mist)

METAR text: KSEA 230653Z 18015G20KT 2SM -RA BR OVC005 09/08 A3000 RMK AO2 SLP165 P0005 T00940078
Conditions at: KSEA (SEATTLE/METRO , WA, US) observed 0653 UTC 23 January 2019
Temperature: 9.4°C (49°F)
Dewpoint: 7.8°C (46°F) [RH = 90%]
Pressure (altimeter): 30.00 inches Hg (1016.0 mb)
[Sea-level pressure: 1016.5 mb]
Winds: from the S (180 degrees) at 17 MPH (15 knots; 7.7 m/s)
gusting to 23 MPH (20 knots; 10.3 m/s)
Visibility: 2.00 miles (3.22 km)
Ceiling: 500 feet AGL
Clouds: overcast cloud deck at 500 feet AGL
Weather: -RA BR  (light rain, mist)

METAR text: KSEA 230553Z 18012KT 8SM -RA BKN007 OVC012 08/07 A3000 RMK AO2 PRESFR SLP165 P0024 60061 T00830067 10089 20067 58028
Conditions at: KSEA (SEATTLE/METRO , WA, US) observed 0553 UTC 23 January 2019
Temperature: 8.3°C (47°F)
Dewpoint: 6.7°C (44°F) [RH = 90%]
Pressure (altimeter): 30.00 inches Hg (1016.0 mb)
[Sea-level pressure: 1016.5 mb]
Winds: from the S (180 degrees) at 14 MPH (12 knots; 6.2 m/s)
Visibility: 8 miles (13 km)
Ceiling: 700 feet AGL
Clouds: broken clouds at 700 feet AGL
overcast cloud deck at 1200 feet AGL
Weather: -RA  (light rain)

METAR text: KSEA 230538Z 17008KT 5SM -RA BR BKN007 OVC013 08/07 A3003 RMK AO2 P0024 T00830067
Conditions at: KSEA (SEATTLE/METRO , WA, US) observed 0538 UTC 23 January 2019
Temperature: 8.3°C (47°F)
Dewpoint: 6.7°C (44°F) [RH = 90%]
Pressure (altimeter): 30.03 inches Hg (1017.0 mb)
Winds: from the S (170 degrees) at 9 MPH (8 knots; 4.1 m/s)
Visibility: 5 miles ( 8 km)
Ceiling: 700 feet AGL
Clouds: broken clouds at 700 feet AGL
overcast cloud deck at 1300 feet AGL
Weather: -RA BR  (light rain, mist)

METAR text: KSEA 230528Z 17007KT 3SM RA BR SCT007 BKN013 OVC018 08/07 A3003 RMK AO2 P0021 T00830067
Conditions at: KSEA (SEATTLE/METRO , WA, US) observed 0528 UTC 23 January 2019
Temperature: 8.3°C (47°F)
Dewpoint: 6.7°C (44°F) [RH = 90%]
Pressure (altimeter): 30.03 inches Hg (1017.0 mb)
Winds: from the S (170 degrees) at 8 MPH (7 knots; 3.6 m/s)
Visibility: 3 miles ( 5 km)
Ceiling: 1300 feet AGL
Clouds: scattered clouds at 700 feet AGL
broken clouds at 1300 feet AGL
overcast cloud deck at 1800 feet AGL
Weather: RA BR  (moderate rain, mist)

METAR text: KSEA 230453Z 19008KT 3SM RA BR OVC017 08/07 A3004 RMK AO2 SLP181 P0019 T00830072
Conditions at: KSEA (SEATTLE/METRO , WA, US) observed 0453 UTC 23 January 2019
Temperature: 8.3°C (47°F)
Dewpoint: 7.2°C (45°F) [RH = 93%]
Pressure (altimeter): 30.04 inches Hg (1017.4 mb)
[Sea-level pressure: 1018.1 mb]
Winds: from the S (190 degrees) at 9 MPH (8 knots; 4.1 m/s)
Visibility: 3 miles ( 5 km)
Ceiling: 1700 feet AGL
Clouds: overcast cloud deck at 1700 feet AGL
Weather: RA BR  (moderate rain, mist)

METAR text: KSEA 230353Z 17014KT 5SM RA BR FEW009 OVC021 08/07 A3005 RMK AO2 SLP183 P0009 T00830067
Conditions at: KSEA (SEATTLE/METRO , WA, US) observed 0353 UTC 23 January 2019
Temperature: 8.3°C (47°F)
Dewpoint: 6.7°C (44°F) [RH = 90%]
Pressure (altimeter): 30.05 inches Hg (1017.7 mb)
[Sea-level pressure: 1018.3 mb]
Winds: from the S (170 degrees) at 16 MPH (14 knots; 7.2 m/s)
Visibility: 5 miles ( 8 km)
Ceiling: 2100 feet AGL
Clouds: few clouds at 900 feet AGL
overcast cloud deck at 2100 feet AGL
Weather: RA BR  (moderate rain, mist)

METAR text: KSEA 230253Z 17017G23KT 7SM -RA FEW008 BKN019 OVC028 08/06 A3008 RMK AO2 SLP194 P0005 60009 T00780056 58039
Conditions at: KSEA (SEATTLE/METRO , WA, US) observed 0253 UTC 23 January 2019
Temperature: 7.8°C (46°F)
Dewpoint: 5.6°C (42°F) [RH = 86%]
Pressure (altimeter): 30.08 inches Hg (1018.7 mb)
[Sea-level pressure: 1019.4 mb]
Winds: from the S (170 degrees) at 20 MPH (17 knots; 8.7 m/s)
gusting to 26 MPH (23 knots; 11.8 m/s)
Visibility: 7 miles (11 km)
Ceiling: 1900 feet AGL
Clouds: few clouds at 800 feet AGL
broken clouds at 1900 feet AGL
overcast cloud deck at 2800 feet AGL
Weather: -RA  (light rain)

METAR text: KSEA 230204Z 16008KT 4SM -RA BKN007 BKN015 OVC020 07/06 A3012 RMK AO2 P0001 T00670056
Conditions at: KSEA (SEATTLE/METRO , WA, US) observed 0204 UTC 23 January 2019
Temperature: 6.7°C (44°F)
Dewpoint: 5.6°C (42°F) [RH = 93%]
Pressure (altimeter): 30.12 inches Hg (1020.1 mb)
Winds: from the SSE (160 degrees) at 9 MPH (8 knots; 4.1 m/s)
Visibility: 4 miles ( 6 km)
Ceiling: 700 feet AGL
Clouds: broken clouds at 700 feet AGL
broken clouds at 1500 feet AGL
overcast cloud deck at 2000 feet AGL
Weather: -RA  (light rain)

METAR text: KSEA 230153Z 15008KT 5SM -RA SCT009 OVC017 07/05 A3012 RMK AO2 SLP209 P0001 T00670050
Conditions at: KSEA (SEATTLE/METRO , WA, US) observed 0153 UTC 23 January 2019
Temperature: 6.7°C (44°F)
Dewpoint: 5.0°C (41°F) [RH = 89%]
Pressure (altimeter): 30.12 inches Hg (1020.1 mb)
[Sea-level pressure: 1020.9 mb]
Winds: from the SSE (150 degrees) at 9 MPH (8 knots; 4.1 m/s)
Visibility: 5 miles ( 8 km)
Ceiling: 1700 feet AGL
Clouds: scattered clouds at 900 feet AGL
overcast cloud deck at 1700 feet AGL
Weather: -RA  (light rain)

METAR text: KSEA 230143Z 15010KT 5SM -RA SCT009 OVC015 07/06 A3012 RMK AO2 P0001 T00720056
Conditions at: KSEA (SEATTLE/METRO , WA, US) observed 0143 UTC 23 January 2019
Temperature: 7.2°C (45°F)
Dewpoint: 5.6°C (42°F) [RH = 90%]
Pressure (altimeter): 30.12 inches Hg (1020.1 mb)
Winds: from the SSE (150 degrees) at 12 MPH (10 knots; 5.1 m/s)
Visibility: 5 miles ( 8 km)
Ceiling: 1500 feet AGL
Clouds: scattered clouds at 900 feet AGL
overcast cloud deck at 1500 feet AGL
Weather: -RA  (light rain)

METAR text: KSEA 230129Z 14011KT 4SM -RA BR SCT009 OVC014 07/05 A3013 RMK AO2 PRESFR P0001 T00670050
Conditions at: KSEA (SEATTLE/METRO , WA, US) observed 0129 UTC 23 January 2019
Temperature: 6.7°C (44°F)
Dewpoint: 5.0°C (41°F) [RH = 89%]
Pressure (altimeter): 30.13 inches Hg (1020.4 mb)
Winds: from the SE (140 degrees) at 13 MPH (11 knots; 5.7 m/s)
Visibility: 4 miles ( 6 km)
Ceiling: 1400 feet AGL
Clouds: scattered clouds at 900 feet AGL
overcast cloud deck at 1400 feet AGL
Weather: -RA BR  (light rain, mist)

METAR text: KSEA 230053Z 16005KT 8SM -RA FEW009 OVC020 07/05 A3017 RMK AO2 SLP223 P0003 T00670050
Conditions at: KSEA (SEATTLE/METRO , WA, US) observed 0053 UTC 23 January 2019
Temperature: 6.7°C (44°F)
Dewpoint: 5.0°C (41°F) [RH = 89%]
Pressure (altimeter): 30.17 inches Hg (1021.8 mb)
[Sea-level pressure: 1022.3 mb]
Winds: from the SSE (160 degrees) at 6 MPH (5 knots; 2.6 m/s)
Visibility: 8 miles (13 km)
Ceiling: 2000 feet AGL
Clouds: few clouds at 900 feet AGL
overcast cloud deck at 2000 feet AGL
Weather: -RA  (light rain)

METAR text: KSEA 222353Z 14006KT 4SM -RA BR FEW009 OVC018 07/05 A3020 RMK AO2 SLP234 P0003 60014 T00670050 10072 20061 58030
Conditions at: KSEA (SEATTLE/METRO , WA, US) observed 2353 UTC 22 January 2019
Temperature: 6.7°C (44°F)
Dewpoint: 5.0°C (41°F) [RH = 89%]
Pressure (altimeter): 30.20 inches Hg (1022.8 mb)
[Sea-level pressure: 1023.4 mb]
Winds: from the SE (140 degrees) at 7 MPH (6 knots; 3.1 m/s)
Visibility: 4 miles ( 6 km)
Ceiling: 1800 feet AGL
Clouds: few clouds at 900 feet AGL
overcast cloud deck at 1800 feet AGL
Weather: -RA BR  (light rain, mist)

METAR text: KSEA 222329Z 14007KT 4SM -RA BR SCT009 OVC015 07/05 A3020 RMK AO2 P0002 T00670050
Conditions at: KSEA (SEATTLE/METRO , WA, US) observed 2329 UTC 22 January 2019
Temperature: 6.7°C (44°F)
Dewpoint: 5.0°C (41°F) [RH = 89%]
Pressure (altimeter): 30.20 inches Hg (1022.8 mb)
Winds: from the SE (140 degrees) at 8 MPH (7 knots; 3.6 m/s)
Visibility: 4 miles ( 6 km)
Ceiling: 1500 feet AGL
Clouds: scattered clouds at 900 feet AGL
overcast cloud deck at 1500 feet AGL
Weather: -RA BR  (light rain, mist)

METAR text: KSEA 222253Z 14005KT 3SM -RA BR SCT006 BKN012 OVC024 06/04 A3023 RMK AO2 SLP246 P0009 T00610044
Conditions at: KSEA (SEATTLE/METRO , WA, US) observed 2253 UTC 22 January 2019
Temperature: 6.1°C (43°F)
Dewpoint: 4.4°C (40°F) [RH = 89%]
Pressure (altimeter): 30.23 inches Hg (1023.8 mb)
[Sea-level pressure: 1024.6 mb]
Winds: from the SE (140 degrees) at 6 MPH (5 knots; 2.6 m/s)
Visibility: 3 miles ( 5 km)
Ceiling: 1200 feet AGL
Clouds: scattered clouds at 600 feet AGL
broken clouds at 1200 feet AGL
overcast cloud deck at 2400 feet AGL
Weather: -RA BR  (light rain, mist)

METAR text: KSEA 222153Z 13006KT 6SM -RA BR SCT005 BKN009 OVC020 07/04 A3026 RMK AO2 DZE35RAB35 SLP254 P0002 T00670044
Conditions at: KSEA (SEATTLE/METRO , WA, US) observed 2153 UTC 22 January 2019
Temperature: 6.7°C (44°F)
Dewpoint: 4.4°C (40°F) [RH = 85%]
Pressure (altimeter): 30.26 inches Hg (1024.8 mb)
[Sea-level pressure: 1025.4 mb]
Winds: from the SE (130 degrees) at 7 MPH (6 knots; 3.1 m/s)
Visibility: 6 miles (10 km)
Ceiling: 900 feet AGL
Clouds: scattered clouds at 500 feet AGL
broken clouds at 900 feet AGL
overcast cloud deck at 2000 feet AGL
Weather: -RA BR  (light rain, mist)

METAR text: KSEA 222149Z 14004KT 6SM -RA BR SCT005 BKN011 OVC020 07/04 A3026 RMK AO2 DZE35RAB35 P0002
Conditions at: KSEA (SEATTLE/METRO , WA, US) observed 2149 UTC 22 January 2019
Temperature: 7.0°C (45°F)
Dewpoint: 4.0°C (39°F) [RH = 81%]
Pressure (altimeter): 30.26 inches Hg (1024.8 mb)
Winds: from the SE (140 degrees) at 5 MPH (4 knots; 2.1 m/s)
Visibility: 6 miles (10 km)
Ceiling: 1100 feet AGL
Clouds: scattered clouds at 500 feet AGL
broken clouds at 1100 feet AGL
overcast cloud deck at 2000 feet AGL
Weather: -RA BR  (light rain, mist)

METAR text: KSEA 222131Z 13005KT 4SM -DZ BR SCT003 BKN015 OVC023 07/04 A3026 RMK AO2 P0001 T00670044
Conditions at: KSEA (SEATTLE/METRO , WA, US) observed 2131 UTC 22 January 2019
Temperature: 6.7°C (44°F)
Dewpoint: 4.4°C (40°F) [RH = 85%]
Pressure (altimeter): 30.26 inches Hg (1024.8 mb)
Winds: from the SE (130 degrees) at 6 MPH (5 knots; 2.6 m/s)
Visibility: 4 miles ( 6 km)
Ceiling: 1500 feet AGL
Clouds: scattered clouds at 300 feet AGL
broken clouds at 1500 feet AGL
overcast cloud deck at 2300 feet AGL
Weather: -DZ BR  (light drizzle, mist)

METAR text: KSEA 222055Z 14003KT 2SM -DZ BR BKN003 BKN023 OVC029 06/05 A3028 RMK AO2 P0000 T00610050
Conditions at: KSEA (SEATTLE/METRO , WA, US) observed 2055 UTC 22 January 2019
Temperature: 6.1°C (43°F)
Dewpoint: 5.0°C (41°F) [RH = 93%]
Pressure (altimeter): 30.28 inches Hg (1025.5 mb)
Winds: from the SE (140 degrees) at 3 MPH (3 knots; 1.5 m/s)
Visibility: 2.00 miles (3.22 km)
Ceiling: 300 feet AGL
Clouds: broken clouds at 300 feet AGL
broken clouds at 2300 feet AGL
overcast cloud deck at 2900 feet AGL
Weather: -DZ BR  (light drizzle, mist)

METAR text: KSEA 222053Z 16003KT 3SM -DZ BR SCT003 SCT015 OVC026 06/05 A3029 RMK AO2 DZB49 SLP264 P0000 60000 T00610050 56017
Conditions at: KSEA (SEATTLE/METRO , WA, US) observed 2053 UTC 22 January 2019
Temperature: 6.1°C (43°F)
Dewpoint: 5.0°C (41°F) [RH = 93%]
Pressure (altimeter): 30.29 inches Hg (1025.8 mb)
[Sea-level pressure: 1026.4 mb]
Winds: from the SSE (160 degrees) at 3 MPH (3 knots; 1.5 m/s)
Visibility: 3 miles ( 5 km)
Ceiling: 2600 feet AGL
Clouds: scattered clouds at 300 feet AGL
scattered clouds at 1500 feet AGL
overcast cloud deck at 2600 feet AGL
Weather: -DZ BR  (light drizzle, mist)

METAR text: KSEA 221953Z 23006KT 3SM BR FEW007 OVC029 06/04 A3030 RMK AO2 SLP269 T00610044
Conditions at: KSEA (SEATTLE/METRO , WA, US) observed 1953 UTC 22 January 2019
Temperature: 6.1°C (43°F)
Dewpoint: 4.4°C (40°F) [RH = 89%]
Pressure (altimeter): 30.30 inches Hg (1026.2 mb)
[Sea-level pressure: 1026.9 mb]
Winds: from the SW (230 degrees) at 7 MPH (6 knots; 3.1 m/s)
Visibility: 3 miles ( 5 km)
Ceiling: 2900 feet AGL
Clouds: few clouds at 700 feet AGL
overcast cloud deck at 2900 feet AGL
Weather: BR  (mist)

METAR text: KSEA 221924Z 21008KT 4SM BR BKN028 OVC037 07/04 A3031 RMK AO2 T00670044
Conditions at: KSEA (SEATTLE/METRO , WA, US) observed 1924 UTC 22 January 2019
Temperature: 6.7°C (44°F)
Dewpoint: 4.4°C (40°F) [RH = 85%]
Pressure (altimeter): 30.31 inches Hg (1026.5 mb)
Winds: from the SSW (210 degrees) at 9 MPH (8 knots; 4.1 m/s)
Visibility: 4 miles ( 6 km)
Ceiling: 2800 feet AGL
Clouds: broken clouds at 2800 feet AGL
overcast cloud deck at 3700 feet AGL
Weather: BR  (mist)

METAR text: KSEA 221853Z 20008KT 6SM HZ OVC032 07/04 A3032 RMK AO2 SLP277 T00670039
Conditions at: KSEA (SEATTLE/METRO , WA, US) observed 1853 UTC 22 January 2019
Temperature: 6.7°C (44°F)
Dewpoint: 3.9°C (39°F) [RH = 82%]
Pressure (altimeter): 30.32 inches Hg (1026.8 mb)
[Sea-level pressure: 1027.7 mb]
Winds: from the SSW (200 degrees) at 9 MPH (8 knots; 4.1 m/s)
Visibility: 6 miles (10 km)
Ceiling: 3200 feet AGL
Clouds: overcast cloud deck at 3200 feet AGL
Weather: HZ  (haze)

METAR text: KSEA 221753Z 19011KT 10SM OVC047 07/02 A3034 RMK AO2 SLP282 60000 T00720022 10072 20050 56009
Conditions at: KSEA (SEATTLE/METRO , WA, US) observed 1753 UTC 22 January 2019
Temperature: 7.2°C (45°F)
Dewpoint: 2.2°C (36°F) [RH = 70%]
Pressure (altimeter): 30.34 inches Hg (1027.5 mb)
[Sea-level pressure: 1028.2 mb]
Winds: from the S (190 degrees) at 13 MPH (11 knots; 5.7 m/s)
Visibility: 10 or more miles (16+ km)
Ceiling: 4700 feet AGL
Clouds: overcast cloud deck at 4700 feet AGL
Weather: no significant weather observed at this time

Forecast for: KSEA (SEATTLE/METRO , WA, US)
Text: KSEA 240536Z 2406/2512 00000KT P6SM OVC011
Forecast period: 0600 to 1000 UTC 24 January 2019
Forecast type: FROM: standard forecast or significant change
Winds: calm
Visibility: 6 or more miles 10+ km)
Ceiling: 1100 feet AGL
Clouds: overcast cloud deck at 1100 feet AGL
Weather: no significant weather forecast for this period
Text: FM241000 VRB03KT P6SM SCT003 BKN006 OVC012
Forecast period: 1000 to 1800 UTC 24 January 2019
Forecast type: FROM: standard forecast or significant change
Winds: variable direction winds at 3 MPH (3 knots; 1.5 m/s)
Visibility: 6 or more miles 10+ km)
Ceiling: 600 feet AGL
Clouds: scattered clouds at 300 feet AGL
broken clouds at 600 feet AGL
overcast cloud deck at 1200 feet AGL
Weather: no significant weather forecast for this period
Text: FM241800 VRB03KT P6SM SCT008 BKN015 OVC030
Forecast period: 1800 to 2200 UTC 24 January 2019
Forecast type: FROM: standard forecast or significant change
Winds: variable direction winds at 3 MPH (3 knots; 1.5 m/s)
Visibility: 6 or more miles 10+ km)
Ceiling: 1500 feet AGL
Clouds: scattered clouds at 800 feet AGL
broken clouds at 1500 feet AGL
overcast cloud deck at 3000 feet AGL
Weather: no significant weather forecast for this period
Text: FM242200 VRB03KT P6SM SCT025 BKN040
Forecast period: 2200 UTC 24 January 2019 to 0800 UTC 25 January 2019
Forecast type: FROM: standard forecast or significant change
Winds: variable direction winds at 3 MPH (3 knots; 1.5 m/s)
Visibility: 6 or more miles 10+ km)
Ceiling: 4000 feet AGL
Clouds: scattered clouds at 2500 feet AGL
broken clouds at 4000 feet AGL
Weather: no significant weather forecast for this period
Text: FM250800 VRB03KT 5SM BR OVC006
Forecast period: 0800 to 1200 UTC 25 January 2019
Forecast type: FROM: standard forecast or significant change
Winds: variable direction winds at 3 MPH (3 knots; 1.5 m/s)
Visibility: 5 miles (8 km)
Ceiling: 600 feet AGL
Clouds: overcast cloud deck at 600 feet AGL
Weather: BR  (mist)